Hlavní strana
METAR-TAF:

METAR-TAF

Letiště :

Samsun, Turecko

zeměpisná šířka: 41-15-15N, zeměpisná délka: 036-34-03E, výška: 5 m

Aktuální stav počasí

Zpráva byla vytvořena před 33 minutami, v 19:50 UTC
Jižní vítr 2 kt
Teplota 9°C
Vlhkost vzduchu 87%
Tlak 1025 hPa
Viditelnost: 4000 m
Polojasno ve výšce 2700 ft
kouřmo

METAR: LTFH 191950Z 18002KT 4000 BR SCT027 09/07 Q1025 NOSIG

Čas: 23:23 (20:23 UTC)

Předpověď počasí

Zpráva byla vytvořena před 3 hodinami a 43 minutami, v 16:40 UTC
Předpověď platná od 19 v 18 UTC do 20 v 03 UTC
vítr z různých směrů 2 kt
Viditelnost: 4000 m
Polojasno ve výšce 3000 ft
kouřmo

TAF: LTFH 191640Z 1918/2003 VRB02KT 4000 BR SCT030

Stav a předpovědi počasí z více než 4 000 letišť (zprávy METAR a TAF).

Červené a žluté tečky na mapě představují dostupné meteorologické stanice.

Když kurzor umístíte na tečku, zobrazí se název stanice.

Pak kliknutím zobrazíte stav a předpověď počasí.

Chcete-li změnit mapu, kliknutím na zelené tlačítko se znaménkem +mapu přiblížíte, kliknutím na zelené tlačítko se znaménkem – mapu oddálíte a kliknutím na zelené šipky přejdete na sousední mapy.


METAR-TAF: